createdAt,value
2023-05-14T00:00:51.584Z,15.73
2023-05-14T00:03:21.093Z,16.03
2023-05-14T00:05:48.578Z,15.99
2023-05-14T00:08:15.164Z,15.96
2023-05-14T00:10:41.754Z,16.01
2023-05-14T00:13:08.281Z,16.00
2023-05-14T00:15:34.803Z,16.00
2023-05-14T00:18:01.447Z,15.97
2023-05-14T00:20:28.101Z,15.96
2023-05-14T00:22:56.577Z,15.94
2023-05-14T00:25:23.170Z,15.95
2023-05-14T00:27:51.973Z,15.93
2023-05-14T00:30:18.968Z,15.92
2023-05-14T00:32:48.471Z,15.91
2023-05-14T00:35:14.979Z,15.92
2023-05-14T00:37:41.555Z,15.92
2023-05-14T00:40:08.753Z,15.92
2023-05-14T00:42:42.940Z,15.60
2023-05-14T00:45:15.875Z,15.85
2023-05-14T00:47:42.539Z,15.81
2023-05-14T00:50:09.341Z,15.82
2023-05-14T00:52:39.274Z,15.85
2023-05-14T00:55:07.825Z,15.82
2023-05-14T00:57:37.506Z,15.80
2023-05-14T01:00:04.765Z,15.84
2023-05-14T01:02:32.548Z,15.86
2023-05-14T01:04:59.175Z,15.83
2023-05-14T01:07:28.896Z,15.76
2023-05-14T01:10:02.444Z,15.79
2023-05-14T01:12:44.889Z,15.75
2023-05-14T01:15:12.839Z,15.64
2023-05-14T01:17:43.089Z,15.75
2023-05-14T01:20:09.830Z,15.65
2023-05-14T01:22:36.526Z,15.72
2023-05-14T01:25:03.132Z,15.70
2023-05-14T01:27:40.078Z,15.63
2023-05-14T01:30:26.470Z,15.62
2023-05-14T01:32:54.905Z,15.64
2023-05-14T01:35:25.113Z,15.63
2023-05-14T01:38:01.677Z,15.62
2023-05-14T01:40:29.018Z,15.59
2023-05-14T01:42:56.684Z,15.59
2023-05-14T01:45:23.901Z,15.58
2023-05-14T01:47:52.180Z,15.52
2023-05-14T01:50:21.669Z,15.50
2023-05-14T01:52:51.461Z,15.39
2023-05-14T01:55:21.193Z,15.47
2023-05-14T01:57:47.710Z,15.38
2023-05-14T02:00:17.545Z,15.40
2023-05-14T02:02:44.192Z,15.33
2023-05-14T02:05:11.268Z,15.32
2023-05-14T02:07:37.828Z,15.30
2023-05-14T02:10:07.312Z,15.37
2023-05-14T02:12:33.895Z,15.29
2023-05-14T02:15:00.553Z,15.35
2023-05-14T02:17:27.188Z,14.96
2023-05-14T02:19:54.124Z,15.29
2023-05-14T02:22:20.742Z,15.22
2023-05-14T02:24:47.316Z,15.15
2023-05-14T02:27:13.933Z,15.23
2023-05-14T02:29:40.646Z,15.20
2023-05-14T02:32:07.400Z,15.12
2023-05-14T02:34:34.844Z,15.10
2023-05-14T02:37:01.548Z,15.24
2023-05-14T02:39:34.539Z,15.12
2023-05-14T02:42:01.426Z,15.13
2023-05-14T02:44:31.918Z,15.06
2023-05-14T02:46:59.246Z,15.20
2023-05-14T02:49:30.112Z,15.07
2023-05-14T02:51:56.837Z,15.02
2023-05-14T02:54:30.127Z,14.70
2023-05-14T02:56:57.125Z,15.03
2023-05-14T02:59:24.445Z,14.99
2023-05-14T03:01:51.989Z,14.97
2023-05-14T03:04:21.888Z,14.92
2023-05-14T03:06:48.541Z,14.89
2023-05-14T03:09:15.224Z,14.93
2023-05-14T03:11:41.812Z,14.98
2023-05-14T03:14:08.525Z,14.86
2023-05-14T03:16:35.199Z,14.89
2023-05-14T03:19:01.768Z,14.83
2023-05-14T03:21:28.525Z,14.87
2023-05-14T03:23:55.224Z,14.93
2023-05-14T03:26:21.861Z,14.89
2023-05-14T03:28:48.666Z,14.86
2023-05-14T03:31:15.579Z,14.62
2023-05-14T03:33:42.370Z,14.91
2023-05-14T03:36:12.322Z,14.92
2023-05-14T03:38:38.925Z,14.81
2023-05-14T03:41:05.529Z,14.78
2023-05-14T03:43:32.165Z,14.69
2023-05-14T03:45:58.698Z,14.66
2023-05-14T03:48:25.401Z,14.63
2023-05-14T03:50:52.420Z,14.59
2023-05-14T03:53:19.035Z,14.59
2023-05-14T03:55:48.064Z,14.59
2023-05-14T03:58:14.765Z,14.61
2023-05-14T04:00:42.205Z,14.65
2023-05-14T04:03:08.990Z,14.66
2023-05-14T04:05:36.078Z,14.67
2023-05-14T04:08:02.625Z,14.69
2023-05-14T04:10:29.330Z,14.73
2023-05-14T04:13:03.688Z,14.67
2023-05-14T04:15:36.281Z,14.33
2023-05-14T04:18:23.443Z,14.69
2023-05-14T04:20:50.081Z,14.64
2023-05-14T04:23:16.559Z,14.63
2023-05-14T04:25:43.173Z,14.60
2023-05-14T04:28:09.672Z,14.56
2023-05-14T04:30:36.216Z,14.62
2023-05-14T04:33:02.903Z,14.74
2023-05-14T04:35:29.570Z,14.71
2023-05-14T04:37:56.147Z,14.68
2023-05-14T04:40:34.467Z,14.63
2023-05-14T04:43:01.172Z,14.62
2023-05-14T04:45:27.753Z,14.60
2023-05-14T04:47:54.517Z,14.61
2023-05-14T04:50:21.656Z,14.63
2023-05-14T04:52:48.509Z,14.58
2023-05-14T04:55:15.398Z,14.56
2023-05-14T04:57:41.932Z,14.61
2023-05-14T05:00:10.109Z,14.63
2023-05-14T05:02:40.448Z,14.59
2023-05-14T05:05:07.306Z,14.56
2023-05-14T05:07:33.875Z,14.55
2023-05-14T05:10:00.789Z,14.63
2023-05-14T05:12:30.535Z,14.54
2023-05-14T05:14:57.589Z,14.61
2023-05-14T05:17:25.116Z,14.59
2023-05-14T05:19:51.825Z,14.56
2023-05-14T05:22:20.319Z,14.52
2023-05-14T05:24:49.236Z,14.48
2023-05-14T05:27:16.728Z,14.45
2023-05-14T05:29:44.230Z,14.48
2023-05-14T05:32:10.924Z,14.45
2023-05-14T05:34:39.923Z,14.45
2023-05-14T05:37:06.548Z,14.50
2023-05-14T05:39:35.201Z,14.54
2023-05-14T05:42:05.531Z,14.58
2023-05-14T05:44:32.083Z,14.57
2023-05-14T05:46:58.798Z,14.59
2023-05-14T05:49:25.622Z,14.49
2023-05-14T05:51:52.299Z,14.42
2023-05-14T05:54:25.588Z,14.34
2023-05-14T05:56:52.248Z,14.37
2023-05-14T05:59:19.019Z,14.40
2023-05-14T06:01:45.599Z,14.42
2023-05-14T06:04:12.384Z,14.39
2023-05-14T06:06:38.862Z,14.33
2023-05-14T06:09:07.096Z,14.32
2023-05-14T06:11:33.810Z,14.35
2023-05-14T06:14:01.373Z,14.36
2023-05-14T06:16:28.241Z,14.37
2023-05-14T06:18:55.677Z,14.41
2023-05-14T06:21:22.290Z,14.47
2023-05-14T06:23:49.939Z,14.50
2023-05-14T06:26:18.058Z,14.47
2023-05-14T06:28:45.376Z,14.46
2023-05-14T06:31:13.896Z,14.46
2023-05-14T06:33:42.500Z,14.47
2023-05-14T06:36:09.830Z,14.51
2023-05-14T06:38:36.729Z,14.60
2023-05-14T06:41:03.568Z,14.57
2023-05-14T06:43:30.190Z,14.57
2023-05-14T06:45:56.956Z,14.61
2023-05-14T06:48:24.191Z,14.68
2023-05-14T06:50:51.093Z,14.67
2023-05-14T06:53:18.800Z,14.67
2023-05-14T06:55:47.245Z,14.71
2023-05-14T06:58:14.019Z,14.84
2023-05-14T07:00:40.548Z,14.89
2023-05-14T07:03:08.821Z,14.80
2023-05-14T07:05:35.978Z,14.79
2023-05-14T07:08:02.505Z,14.81
2023-05-14T07:10:29.297Z,14.81
2023-05-14T07:12:56.178Z,14.90
2023-05-14T07:15:24.837Z,14.89
2023-05-14T07:17:51.464Z,14.93
2023-05-14T07:20:21.002Z,14.89
2023-05-14T07:22:47.627Z,14.87
2023-05-14T07:25:14.266Z,14.91
2023-05-14T07:27:41.436Z,14.86
2023-05-14T07:30:08.361Z,14.81
2023-05-14T07:32:35.015Z,14.84
2023-05-14T07:35:02.156Z,14.87
2023-05-14T07:37:28.887Z,14.82
2023-05-14T07:39:56.491Z,14.92
2023-05-14T07:42:35.007Z,14.89
2023-05-14T07:45:03.107Z,14.91
2023-05-14T07:47:33.016Z,14.33
2023-05-14T07:50:00.236Z,14.93
2023-05-14T07:52:30.021Z,14.93
2023-05-14T07:54:56.840Z,14.92
2023-05-14T07:57:23.673Z,15.08
2023-05-14T07:59:57.258Z,15.06
2023-05-14T08:02:24.651Z,15.08
2023-05-14T08:04:54.705Z,15.12
2023-05-14T08:07:21.703Z,15.13
2023-05-14T08:09:49.438Z,15.11
2023-05-14T08:12:17.390Z,15.11
2023-05-14T08:14:47.255Z,15.12
2023-05-14T08:17:13.975Z,15.16
2023-05-14T08:19:43.982Z,15.20
2023-05-14T08:22:10.540Z,15.18
2023-05-14T08:24:37.057Z,15.22
2023-05-14T08:27:03.734Z,15.31
2023-05-14T08:29:30.460Z,15.34
2023-05-14T08:31:57.989Z,15.39
2023-05-14T08:34:24.778Z,15.42
2023-05-14T08:36:51.468Z,15.50
2023-05-14T08:39:17.927Z,15.50
2023-05-14T08:41:45.331Z,15.58
2023-05-14T08:44:11.885Z,15.58
2023-05-14T08:46:39.691Z,15.41
2023-05-14T08:49:17.414Z,15.77
2023-05-14T08:51:48.606Z,15.96
2023-05-14T08:54:19.908Z,15.96
2023-05-14T08:56:46.605Z,16.09
2023-05-14T08:59:13.632Z,16.10
2023-05-14T09:05:38.596Z,16.21
2023-05-14T09:08:05.203Z,16.19
2023-05-14T09:10:32.730Z,16.22
2023-05-14T09:13:02.425Z,16.25
2023-05-14T09:15:29.684Z,16.41
2023-05-14T09:17:56.792Z,16.45
2023-05-14T09:20:24.779Z,16.48
2023-05-14T09:23:06.465Z,16.42
2023-05-14T09:25:38.561Z,16.43
2023-05-14T09:28:09.223Z,16.46
2023-05-14T09:30:37.092Z,16.58
2023-05-14T09:33:08.490Z,16.59
2023-05-14T09:35:35.043Z,16.65
2023-05-14T09:38:01.619Z,16.69
2023-05-14T09:40:28.568Z,16.73
2023-05-14T09:42:58.453Z,16.69
2023-05-14T09:45:25.317Z,16.73
2023-05-14T09:47:58.068Z,16.70
2023-05-14T09:50:26.697Z,16.76
2023-05-14T09:52:55.531Z,16.77
2023-05-14T09:55:24.722Z,16.69
2023-05-14T09:57:51.557Z,16.77
2023-05-14T10:00:19.411Z,16.76
2023-05-14T10:02:46.735Z,16.55
2023-05-14T10:05:14.109Z,16.49
2023-05-14T10:07:50.101Z,16.11
2023-05-14T10:10:19.634Z,16.27
2023-05-14T10:12:51.033Z,16.30
2023-05-14T10:15:21.307Z,16.27
2023-05-14T10:17:49.950Z,16.12
2023-05-14T10:20:20.600Z,16.15
2023-05-14T10:22:47.728Z,16.02
2023-05-14T10:25:14.961Z,16.02
2023-05-14T10:27:44.993Z,15.95
2023-05-14T10:30:14.513Z,15.89
2023-05-14T10:32:42.224Z,15.79
2023-05-14T10:35:20.782Z,15.80
2023-05-14T10:37:47.657Z,15.76
2023-05-14T10:40:14.525Z,15.56
2023-05-14T10:42:43.508Z,15.56
2023-05-14T10:45:11.980Z,15.58
2023-05-14T10:47:46.609Z,15.47
2023-05-14T10:50:25.265Z,15.47
2023-05-14T10:52:52.866Z,15.40
2023-05-14T10:55:19.684Z,15.39
2023-05-14T10:57:46.820Z,15.34
2023-05-14T11:00:17.581Z,15.31
2023-05-14T11:02:45.167Z,15.32
2023-05-14T11:05:19.839Z,15.32
2023-05-14T11:07:48.515Z,15.44
2023-05-14T11:10:17.366Z,15.10
2023-05-14T11:12:45.162Z,15.43
2023-05-14T11:15:16.926Z,15.40
2023-05-14T11:17:44.961Z,15.47
2023-05-14T11:20:12.351Z,15.52
2023-05-14T11:22:40.372Z,15.54
2023-05-14T11:25:07.751Z,15.41
2023-05-14T11:27:35.723Z,15.53
2023-05-14T11:30:02.552Z,15.54
2023-05-14T11:32:29.225Z,15.68
2023-05-14T11:34:56.072Z,15.69
2023-05-14T11:37:22.799Z,15.73
2023-05-14T11:39:57.571Z,15.73
2023-05-14T11:42:25.962Z,15.66
2023-05-14T11:44:54.030Z,15.65
2023-05-14T11:47:21.927Z,15.83
2023-05-14T11:49:53.764Z,15.76
2023-05-14T11:52:22.107Z,15.77
2023-05-14T11:54:51.072Z,15.79
2023-05-14T11:57:21.863Z,15.78
2023-05-14T11:59:56.611Z,15.86
2023-05-14T12:02:23.605Z,15.96
2023-05-14T12:04:52.425Z,15.97
2023-05-14T12:07:22.001Z,15.95
2023-05-14T12:09:50.072Z,15.98
2023-05-14T12:12:20.962Z,15.94
2023-05-14T12:14:47.863Z,15.96
2023-05-14T12:17:17.428Z,15.97
2023-05-14T12:19:45.146Z,15.93
2023-05-14T12:22:14.462Z,15.92
2023-05-14T12:24:43.968Z,15.82
2023-05-14T12:27:11.088Z,15.78
2023-05-14T12:29:39.151Z,15.76
2023-05-14T12:32:09.768Z,15.74
2023-05-14T12:34:37.703Z,15.61
2023-05-14T12:37:05.162Z,15.55
2023-05-14T12:39:33.361Z,15.51
2023-05-14T12:42:00.095Z,15.54
2023-05-14T12:44:26.769Z,15.53
2023-05-14T12:46:53.688Z,15.55
2023-05-14T12:49:21.844Z,15.14
2023-05-14T12:51:48.768Z,15.60
2023-05-14T12:54:16.147Z,15.66
2023-05-14T12:56:42.866Z,15.65
2023-05-14T12:59:12.980Z,15.64
2023-05-14T13:01:43.623Z,15.66
2023-05-14T13:04:12.659Z,15.72
2023-05-14T13:06:42.731Z,15.74
2023-05-14T13:09:09.654Z,15.70
2023-05-14T13:11:39.064Z,15.72
2023-05-14T13:14:05.787Z,15.73
2023-05-14T13:16:32.315Z,15.74
2023-05-14T13:18:58.907Z,15.80
2023-05-14T13:21:25.634Z,15.80
2023-05-14T13:23:52.252Z,15.82
2023-05-14T13:26:18.834Z,15.89
2023-05-14T13:28:45.565Z,15.99
2023-05-14T13:31:12.944Z,15.94
2023-05-14T13:33:43.491Z,15.91
2023-05-14T13:36:11.918Z,15.96
2023-05-14T13:38:38.624Z,16.01
2023-05-14T13:41:05.805Z,16.09
2023-05-14T13:43:33.058Z,16.29
2023-05-14T13:46:00.176Z,16.27
2023-05-14T13:48:27.765Z,16.28
2023-05-14T13:50:54.546Z,16.39
2023-05-14T13:53:21.533Z,16.41
2023-05-14T13:55:49.299Z,16.43
2023-05-14T13:58:17.356Z,16.51
2023-05-14T14:00:43.954Z,16.55
2023-05-14T14:03:10.679Z,16.63
2023-05-14T14:05:40.072Z,16.69
2023-05-14T14:08:22.597Z,16.80
2023-05-14T14:10:50.974Z,16.83
2023-05-14T14:13:17.616Z,16.82
2023-05-14T14:15:44.626Z,16.92
2023-05-14T14:18:11.544Z,17.00
2023-05-14T14:20:41.221Z,16.93
2023-05-14T14:23:07.758Z,16.90
2023-05-14T14:25:39.230Z,16.44
2023-05-14T14:28:08.964Z,16.86
2023-05-14T14:30:38.129Z,16.38
2023-05-14T14:33:07.747Z,16.98
2023-05-14T14:35:37.839Z,17.07
2023-05-14T14:38:05.854Z,16.72
2023-05-14T14:40:52.893Z,17.09
2023-05-14T14:43:19.700Z,17.16
2023-05-14T14:45:48.885Z,17.17
2023-05-14T14:48:25.113Z,17.25
2023-05-14T14:50:54.488Z,17.42
2023-05-14T14:53:22.026Z,17.49
2023-05-14T14:55:49.397Z,17.36
2023-05-14T14:58:16.840Z,17.37
2023-05-14T15:00:54.437Z,17.09
2023-05-14T15:03:24.564Z,17.31
2023-05-14T15:05:52.338Z,17.26
2023-05-14T15:08:19.307Z,17.26
2023-05-14T15:10:49.927Z,17.22
2023-05-14T15:13:16.546Z,17.15
2023-05-14T15:15:43.145Z,17.17
2023-05-14T15:18:14.763Z,17.24
2023-05-14T15:20:42.781Z,17.23
2023-05-14T15:23:11.681Z,17.14
2023-05-14T15:25:38.375Z,17.11
2023-05-14T15:28:06.164Z,17.05
2023-05-14T15:30:37.260Z,17.03
2023-05-14T15:33:06.761Z,17.06
2023-05-14T15:35:33.432Z,17.01
2023-05-14T15:38:04.034Z,17.00
2023-05-14T15:40:30.686Z,17.03
2023-05-14T15:43:00.881Z,17.00
2023-05-14T15:45:28.282Z,17.02
2023-05-14T15:47:54.819Z,17.03
2023-05-14T15:50:27.484Z,17.07
2023-05-14T15:52:58.997Z,17.13
2023-05-14T15:55:25.549Z,17.14
2023-05-14T15:57:54.219Z,17.17
2023-05-14T16:00:21.358Z,16.92
2023-05-14T16:02:56.794Z,16.86
2023-05-14T16:05:23.818Z,17.19
2023-05-14T16:07:50.790Z,17.41
2023-05-14T16:10:18.484Z,18.26
2023-05-14T16:12:47.990Z,18.77
2023-05-14T16:15:14.678Z,18.71
2023-05-14T16:17:42.076Z,18.75
2023-05-14T16:20:11.353Z,18.78
2023-05-14T16:22:38.036Z,18.57
2023-05-14T16:25:05.030Z,18.39
2023-05-14T16:27:32.159Z,18.24
2023-05-14T16:30:01.748Z,18.06
2023-05-14T16:32:28.375Z,17.98
2023-05-14T16:34:56.744Z,17.57
2023-05-14T16:37:23.469Z,17.71
2023-05-14T16:39:52.236Z,17.64
2023-05-14T16:42:19.062Z,17.54
2023-05-14T16:44:45.727Z,17.51
2023-05-14T16:47:16.498Z,17.06
2023-05-14T16:49:44.572Z,17.25
2023-05-14T16:52:11.202Z,17.19
2023-05-14T16:54:37.655Z,17.07
2023-05-14T16:57:04.630Z,17.09
2023-05-14T16:59:31.157Z,17.10
2023-05-14T17:01:57.740Z,17.14
2023-05-14T17:04:26.710Z,17.12
2023-05-14T17:06:53.862Z,16.93
2023-05-14T17:09:20.555Z,16.84
2023-05-14T17:11:47.396Z,16.85
2023-05-14T17:14:14.858Z,16.81
2023-05-14T17:16:42.454Z,16.75
2023-05-14T17:19:09.310Z,16.72
2023-05-14T17:21:35.880Z,16.75
2023-05-14T17:24:02.424Z,16.75
2023-05-14T17:26:29.434Z,16.76
2023-05-14T17:28:59.128Z,16.72
2023-05-14T17:31:25.823Z,16.68
2023-05-14T17:33:52.779Z,16.66
2023-05-14T17:36:23.364Z,16.33
2023-05-14T17:38:50.040Z,16.60
2023-05-14T17:41:17.911Z,16.57
2023-05-14T17:43:44.953Z,16.60
2023-05-14T17:46:11.549Z,16.64
2023-05-14T17:48:38.186Z,16.57
2023-05-14T17:51:05.163Z,16.48
2023-05-14T17:53:32.925Z,16.47
2023-05-14T17:56:00.921Z,16.53
2023-05-14T17:58:27.649Z,16.51
2023-05-14T18:01:00.743Z,16.47
2023-05-14T18:03:30.969Z,16.48
2023-05-14T18:06:01.516Z,16.18
2023-05-14T18:08:31.011Z,16.54
2023-05-14T18:10:58.771Z,16.51
2023-05-14T18:13:31.862Z,16.15
2023-05-14T18:15:59.327Z,16.37
2023-05-14T18:18:26.058Z,16.39
2023-05-14T18:20:56.787Z,16.38
2023-05-14T18:23:24.642Z,16.40
2023-05-14T18:25:51.225Z,16.41
2023-05-14T18:28:19.350Z,16.38
2023-05-14T18:30:46.026Z,16.38
2023-05-14T18:33:13.056Z,16.34
2023-05-14T18:35:39.689Z,16.31
2023-05-14T18:38:07.951Z,16.30
2023-05-14T18:40:35.101Z,16.30
2023-05-14T18:43:08.149Z,16.31
2023-05-14T18:45:35.110Z,16.24
2023-05-14T18:48:11.083Z,16.24
2023-05-14T18:50:44.170Z,16.21
2023-05-14T18:53:18.020Z,16.22
2023-05-14T18:55:52.762Z,15.91
2023-05-14T18:58:23.382Z,16.21
2023-05-14T19:00:55.743Z,16.24
2023-05-14T19:03:27.305Z,16.22
2023-05-14T19:06:01.101Z,16.21
2023-05-14T19:08:30.570Z,16.23
2023-05-14T19:10:59.686Z,16.31
2023-05-14T19:13:46.869Z,16.30
2023-05-14T19:16:14.470Z,16.22
2023-05-14T19:18:42.508Z,16.17
2023-05-14T19:21:11.834Z,16.12
2023-05-14T19:23:48.107Z,16.09
2023-05-14T19:26:18.547Z,16.04
2023-05-14T19:28:45.790Z,16.01
2023-05-14T19:31:16.124Z,15.97
2023-05-14T19:33:45.780Z,15.96
2023-05-14T19:36:16.513Z,15.95
2023-05-14T19:38:46.571Z,15.95
2023-05-14T19:41:27.002Z,15.67
2023-05-14T19:44:01.044Z,15.97
2023-05-14T19:46:36.436Z,15.92
2023-05-14T19:49:03.135Z,15.89
2023-05-14T19:51:32.872Z,15.89
2023-05-14T19:54:02.987Z,15.77
2023-05-14T19:56:29.910Z,15.97
2023-05-14T19:59:01.811Z,15.95
2023-05-14T20:01:29.210Z,15.95
2023-05-14T20:04:04.022Z,15.92
2023-05-14T20:06:31.102Z,15.87
2023-05-14T20:08:58.125Z,15.88
2023-05-14T20:11:32.285Z,15.86
2023-05-14T20:14:04.336Z,15.91
2023-05-14T20:16:32.844Z,15.93
2023-05-14T20:19:03.170Z,15.67
2023-05-14T20:21:36.918Z,15.93
2023-05-14T20:24:06.062Z,15.93
2023-05-14T20:26:32.958Z,15.93
2023-05-14T20:29:02.510Z,15.88
2023-05-14T20:31:29.565Z,15.82
2023-05-14T20:33:57.584Z,15.78
2023-05-14T20:36:30.101Z,15.78
2023-05-14T20:39:04.896Z,15.80
2023-05-14T20:41:32.182Z,15.82
2023-05-14T20:43:59.230Z,15.84
2023-05-14T20:46:33.019Z,15.49
2023-05-14T20:49:04.527Z,15.82
2023-05-14T20:51:33.484Z,15.80
2023-05-14T20:54:01.122Z,15.78
2023-05-14T20:56:28.567Z,15.76
2023-05-14T20:58:55.427Z,15.75
2023-05-14T21:01:27.240Z,15.75
2023-05-14T21:03:57.738Z,15.73
2023-05-14T21:06:28.981Z,15.74
2023-05-14T21:08:55.797Z,15.71
2023-05-14T21:11:23.753Z,15.71
2023-05-14T21:13:50.623Z,15.70
2023-05-14T21:16:17.486Z,15.70
2023-05-14T21:18:44.257Z,15.71
2023-05-14T21:21:11.211Z,15.67
2023-05-14T21:23:38.490Z,15.71
2023-05-14T21:26:05.272Z,15.62
2023-05-14T21:28:32.581Z,15.60
2023-05-14T21:31:01.376Z,15.57
2023-05-14T21:33:27.889Z,15.53
2023-05-14T21:36:01.745Z,15.53
2023-05-14T21:38:31.970Z,15.54
2023-05-14T21:40:58.582Z,15.55
2023-05-14T21:43:45.968Z,15.54
2023-05-14T21:46:18.528Z,15.58
2023-05-14T21:48:45.473Z,15.59
2023-05-14T21:51:15.233Z,15.51
2023-05-14T21:53:42.567Z,15.47
2023-05-14T21:56:33.209Z,15.44
2023-05-14T21:59:00.575Z,15.41
2023-05-14T22:02:06.724Z,15.38
2023-05-14T22:04:37.368Z,15.31
2023-05-14T22:07:08.759Z,15.35
2023-05-14T22:09:38.325Z,15.38
2023-05-14T22:12:05.181Z,15.35
2023-05-14T22:14:34.436Z,15.37
2023-05-14T22:17:02.090Z,15.34
2023-05-14T22:19:32.221Z,15.34
2023-05-14T22:22:03.342Z,15.33
2023-05-14T22:24:30.213Z,15.39
2023-05-14T22:27:06.614Z,15.39
2023-05-14T22:29:41.235Z,15.44
2023-05-14T22:32:14.689Z,15.47
2023-05-14T22:34:54.645Z,15.15
2023-05-14T22:37:21.305Z,15.48
2023-05-14T22:39:50.006Z,15.20
2023-05-14T22:42:16.583Z,15.47
2023-05-14T22:44:44.394Z,15.48
2023-05-14T22:47:15.012Z,15.21
2023-05-14T22:49:46.207Z,15.31
2023-05-14T22:52:12.911Z,15.64
2023-05-14T22:54:39.545Z,15.59
2023-05-14T22:57:06.846Z,15.56
2023-05-14T22:59:33.364Z,15.50
2023-05-14T23:02:02.090Z,15.45
2023-05-14T23:04:28.832Z,15.44
2023-05-14T23:06:55.455Z,15.45
2023-05-14T23:09:22.199Z,15.43
2023-05-14T23:11:48.835Z,15.40
2023-05-14T23:14:18.322Z,15.36
2023-05-14T23:16:45.100Z,15.39
2023-05-14T23:19:11.999Z,15.40
2023-05-14T23:21:42.764Z,15.38
2023-05-14T23:24:10.105Z,15.40
2023-05-14T23:26:36.868Z,15.34
2023-05-14T23:29:03.687Z,15.33
2023-05-14T23:31:33.545Z,15.32
2023-05-14T23:33:59.994Z,15.30
2023-05-14T23:36:34.061Z,15.33
2023-05-14T23:39:02.763Z,15.33
2023-05-14T23:41:37.157Z,15.32
2023-05-14T23:44:03.917Z,15.33
2023-05-14T23:46:30.692Z,15.32
2023-05-14T23:48:57.356Z,15.32
2023-05-14T23:51:24.469Z,15.34
2023-05-14T23:53:53.279Z,15.29
2023-05-14T23:56:20.533Z,15.31
2023-05-14T23:58:48.731Z,15.28
